Time;durP1;ratioP1;P1;durP2;ratioP2;P2;SDS_P1;SDS_P2;PMS_P1;PMS_P2;Temp;Humidity;BMP_temperature;BMP_pressure;BME280_temperature;BME280_humidity;BME280_pressure;Samples;Min_cycle;Max_cycle;Signal;HPM_P1;HPM_P2
2021/06/07 00:02:17;;;;;;;28.58;17.67;;;;;;;-143.98;100.00;68091.63;5020916;28;20144;-83
2021/06/07 00:04:44;;;;;;;25.58;17.15;;;;;;;-143.98;100.00;68091.63;5022794;28;20050;-82
2021/06/07 00:07:14;;;;;;;24.17;17.27;;;;;;;-143.98;100.00;68091.63;5018687;28;20057;-82
2021/06/07 00:09:42;;;;;;;28.63;18.38;;;;;;;-143.98;100.00;68091.63;5018060;28;20105;-82
2021/06/07 00:12:14;;;;;;;29.42;18.52;;;;;;;-143.98;100.00;68091.63;5018026;28;20109;-82
2021/06/07 00:14:45;;;;;;;29.45;18.48;;;;;;;-143.98;100.00;68091.63;5017984;28;20053;-82
2021/06/07 00:17:15;;;;;;;24.25;17.95;;;;;;;-143.98;100.00;68091.63;5033935;28;20065;-82
2021/06/07 00:19:45;;;;;;;28.52;18.45;;;;;;;-143.98;100.00;68091.63;5027329;28;20104;-83
2021/06/07 00:22:12;;;;;;;26.70;17.45;;;;;;;-143.98;100.00;68091.63;5022051;28;20054;-81
2021/06/07 00:24:41;;;;;;;22.65;16.83;;;;;;;-143.98;100.00;68091.63;5020907;28;20234;-82
2021/06/07 00:27:14;;;;;;;31.83;19.25;;;;;;;-143.98;100.00;68091.63;5021689;28;20459;-83
2021/06/07 00:29:44;;;;;;;27.67;18.65;;;;;;;-143.98;100.00;68091.63;5020477;28;20136;-82
2021/06/07 00:32:14;;;;;;;27.98;19.67;;;;;;;-143.98;100.00;68091.63;5020407;28;20076;-82
2021/06/07 00:34:44;;;;;;;30.58;18.98;;;;;;;-143.98;100.00;68091.63;5023378;28;20053;-82
2021/06/07 00:37:14;;;;;;;24.25;17.90;;;;;;;-143.98;100.00;68091.63;5040250;28;20338;-83
2021/06/07 00:39:53;;;;;;;29.98;19.63;;;;;;;-143.98;100.00;68091.63;5039855;28;20064;-83
2021/06/07 00:42:20;;;;;;;24.80;18.55;;;;;;;-143.98;100.00;68091.63;5039708;28;20418;-82
2021/06/07 00:44:46;;;;;;;30.20;19.30;;;;;;;-143.98;100.00;68091.63;5040402;28;20140;-82
2021/06/07 00:47:14;;;;;;;28.40;19.75;;;;;;;-143.98;100.00;68091.63;5040962;28;20057;-83
2021/06/07 00:49:54;;;;;;;28.52;19.33;;;;;;;-143.98;100.00;68091.63;5023344;28;20049;-82
2021/06/07 00:52:21;;;;;;;29.20;19.80;;;;;;;-143.98;100.00;68091.63;5023424;28;20342;-83
2021/06/07 00:54:47;;;;;;;31.80;20.05;;;;;;;-143.98;100.00;68091.63;5023879;28;20053;-83
2021/06/07 00:57:17;;;;;;;34.05;20.42;;;;;;;-143.98;100.00;68091.63;5039873;28;20060;-83
2021/06/07 00:59:44;;;;;;;30.48;21.75;;;;;;;-143.98;100.00;68091.63;5040246;28;20053;-83
2021/06/07 01:02:16;;;;;;;27.20;19.80;;;;;;;-143.98;100.00;68091.63;5039727;28;20548;-82
2021/06/07 01:04:47;;;;;;;29.38;21.73;;;;;;;-143.98;100.00;68091.63;5039613;28;20154;-82
2021/06/07 01:07:16;;;;;;;37.30;22.42;;;;;;;-143.98;100.00;68091.63;5023338;28;20108;-82
2021/06/07 01:09:46;;;;;;;28.52;21.13;;;;;;;-143.98;100.00;68091.63;5023809;28;20370;-82
2021/06/07 01:12:16;;;;;;;31.08;22.00;;;;;;;-143.98;100.00;68091.63;5040265;28;20081;-82
2021/06/07 01:14:43;;;;;;;38.78;20.65;;;;;;;-143.98;100.00;68091.63;5040826;28;20073;-83
2021/06/07 01:17:16;;;;;;;26.58;19.35;;;;;;;-143.98;100.00;68091.63;5024541;28;20064;-82
2021/06/07 01:19:46;;;;;;;30.33;21.25;;;;;;;-143.98;100.00;68091.63;5025143;28;20103;-83
2021/06/07 01:22:13;;;;;;;38.13;22.48;;;;;;;-143.98;100.00;68091.63;5044480;28;20182;-82
2021/06/07 01:24:45;;;;;;;30.40;21.73;;;;;;;-143.98;100.00;68091.63;5044448;28;20435;-83
2021/06/07 01:27:15;;;;;;;33.90;21.75;;;;;;;-143.98;100.00;68091.63;5042306;28;20051;-82
2021/06/07 01:29:43;;;;;;;35.75;21.92;;;;;;;-143.98;100.00;68091.63;5040642;28;20053;-82
2021/06/07 01:32:12;;;;;;;39.13;22.23;;;;;;;-143.98;100.00;68091.63;5040384;28;20058;-82
2021/06/07 01:34:40;;;;;;;36.10;24.55;;;;;;;-143.98;100.00;68091.63;5023042;28;20120;-83
2021/06/07 01:37:16;;;;;;;35.90;22.52;;;;;;;-143.98;100.00;68091.63;5024334;28;20184;-82
2021/06/07 01:39:52;;;;;;;37.95;24.27;;;;;;;-143.98;100.00;68091.63;5039309;28;20050;-83
2021/06/07 01:42:19;;;;;;;42.15;24.95;;;;;;;-143.98;100.00;68091.63;5040320;28;20053;-83
2021/06/07 01:45:04;;;;;;;37.25;25.48;;;;;;;-143.98;100.00;68091.63;5041929;28;20065;-82
2021/06/07 01:47:31;;;;;;;43.30;25.45;;;;;;;-143.98;100.00;68091.63;5034522;28;20029;-83
2021/06/07 01:49:58;;;;;;;37.42;24.70;;;;;;;-143.98;100.00;68091.63;5039012;28;20033;-82
2021/06/07 01:52:25;;;;;;;36.55;25.80;;;;;;;-143.98;100.00;68091.63;5045670;28;20346;-82
2021/06/07 01:54:55;;;;;;;40.13;26.25;;;;;;;-143.98;100.00;68091.63;5024303;28;20498;-82
2021/06/07 01:57:22;;;;;;;43.58;27.17;;;;;;;-143.98;100.00;68091.63;5023661;28;20137;-82
2021/06/07 01:59:52;;;;;;;45.83;26.73;;;;;;;-143.98;100.00;68091.63;5040492;28;20045;-82
2021/06/07 02:03:10;;;;;;;42.40;26.90;;;;;;;-143.98;100.00;68091.63;5025570;28;20096;-82
2021/06/07 02:05:38;;;;;;;44.33;25.90;;;;;;;-143.98;100.00;68091.63;5044429;28;20046;-82
2021/06/07 02:08:08;;;;;;;40.67;26.75;;;;;;;-143.98;100.00;68091.63;5044290;28;20117;-82
2021/06/07 02:10:40;;;;;;;49.35;28.40;;;;;;;-143.98;100.00;68091.63;5027809;28;20061;-82
2021/06/07 02:13:08;;;;;;;43.17;26.63;;;;;;;-143.98;100.00;68091.63;5026603;28;20095;-82
2021/06/07 02:15:35;;;;;;;41.22;24.70;;;;;;;-143.98;100.00;68091.63;5043622;28;20064;-82
2021/06/07 02:18:04;;;;;;;35.38;25.75;;;;;;;-143.98;100.00;68091.63;5043410;28;20049;-82
2021/06/07 02:20:32;;;;;;;37.22;24.70;;;;;;;-143.98;100.00;68091.63;5027514;28;20054;-81
2021/06/07 02:22:58;;;;;;;36.58;24.67;;;;;;;-143.98;100.00;68091.63;5046171;28;20053;-81
2021/06/07 02:25:26;;;;;;;34.53;23.25;;;;;;;-143.98;100.00;68091.63;5050534;28;20056;-82
2021/06/07 02:27:54;;;;;;;34.20;22.83;;;;;;;-143.98;100.00;68091.63;5029478;28;20108;-82
2021/06/07 02:30:29;;;;;;;35.60;23.40;;;;;;;-143.98;100.00;68091.63;5044157;28;20466;-82
2021/06/07 02:33:00;;;;;;;32.47;22.80;;;;;;;-143.98;100.00;68091.63;5026521;28;20080;-82
2021/06/07 02:35:27;;;;;;;34.40;23.08;;;;;;;-143.98;100.00;68091.63;5027796;28;20100;-82
2021/06/07 02:38:01;;;;;;;32.20;22.00;;;;;;;-143.98;100.00;68091.63;5026932;28;20053;-82
2021/06/07 02:40:30;;;;;;;31.88;22.95;;;;;;;-143.98;100.00;68091.63;5043225;28;20056;-82
2021/06/07 02:42:57;;;;;;;34.20;22.60;;;;;;;-143.98;100.00;68091.63;5026928;28;20054;-82
2021/06/07 02:45:26;;;;;;;34.38;23.13;;;;;;;-143.98;100.00;68091.63;5043388;28;20212;-82
2021/06/07 02:48:01;;;;;;;32.38;22.92;;;;;;;-143.98;100.00;68091.63;5043187;28;20114;-82
2021/06/07 02:50:35;;;;;;;38.42;23.65;;;;;;;-143.98;100.00;68091.63;5026163;28;20071;-82
2021/06/07 02:53:03;;;;;;;33.28;22.55;;;;;;;-143.98;100.00;68091.63;5027249;28;20064;-82
2021/06/07 02:55:37;;;;;;;37.20;22.98;;;;;;;-143.98;100.00;68091.63;5026545;28;20091;-82
2021/06/07 02:58:05;;;;;;;38.63;22.95;;;;;;;-143.98;100.00;68091.63;5041935;28;20320;-82
2021/06/07 03:01:02;;;;;;;41.33;23.95;;;;;;;-143.98;100.00;68091.63;5025996;28;20057;-82
2021/06/07 03:03:29;;;;;;;31.52;22.77;;;;;;;-143.98;100.00;68091.63;5042277;28;20119;-81
2021/06/07 03:05:59;;;;;;;38.63;24.13;;;;;;;-143.98;100.00;68091.63;5042720;28;20064;-82
2021/06/07 03:08:43;;;;;;;37.17;24.10;;;;;;;-143.98;100.00;68091.63;4992287;28;20049;-82
2021/06/07 03:11:11;;;;;;;32.72;23.02;;;;;;;-143.98;100.00;68091.63;5025546;28;20496;-83
2021/06/07 03:13:42;;;;;;;43.65;25.05;;;;;;;-143.98;100.00;68091.63;5040533;28;20053;-82
2021/06/07 03:16:10;;;;;;;34.22;22.88;;;;;;;-143.98;100.00;68091.63;5025564;28;20053;-82
2021/06/07 03:18:46;;;;;;;40.55;23.40;;;;;;;-143.98;100.00;68091.63;5025224;28;20061;-82
2021/06/07 03:21:14;;;;;;;33.53;22.92;;;;;;;-143.98;100.00;68091.63;5024457;28;20292;-84
2021/06/07 03:23:41;;;;;;;37.47;23.15;;;;;;;-143.98;100.00;68091.63;5025398;28;20221;-82
2021/06/07 03:26:10;;;;;;;37.90;24.95;;;;;;;-143.98;100.00;68091.63;5024073;28;20064;-81
2021/06/07 03:28:43;;;;;;;36.97;23.52;;;;;;;-143.98;100.00;68091.63;5038802;28;20072;-82
2021/06/07 03:31:10;;;;;;;35.35;24.15;;;;;;;-143.98;100.00;68091.63;5041811;28;20050;-81
2021/06/07 03:33:39;;;;;;;41.40;24.23;;;;;;;-143.98;100.00;68091.63;5024324;28;20064;-81
2021/06/07 03:36:06;;;;;;;48.22;26.70;;;;;;;-143.98;100.00;68091.63;5039740;28;20115;-82
2021/06/07 03:38:34;;;;;;;54.63;27.25;;;;;;;-143.98;100.00;68091.63;5040168;28;20080;-82
2021/06/07 03:41:07;;;;;;;47.35;27.40;;;;;;;-143.98;100.00;68091.63;5042097;28;20119;-82
2021/06/07 03:43:37;;;;;;;39.05;26.45;;;;;;;-143.98;100.00;68091.63;5043214;28;20064;-82
2021/06/07 03:46:07;;;;;;;37.65;26.70;;;;;;;-143.98;100.00;68091.63;5009742;28;20057;-82
2021/06/07 03:48:34;;;;;;;42.90;27.05;;;;;;;-143.98;100.00;68091.63;5023933;28;20053;-82
2021/06/07 03:51:02;;;;;;;43.97;28.08;;;;;;;-143.98;100.00;68091.63;5023303;28;20049;-82
2021/06/07 03:53:28;;;;;;;48.50;28.23;;;;;;;-143.98;100.00;68091.63;5040389;28;20061;-82
2021/06/07 03:56:08;;;;;;;44.03;26.33;;;;;;;-143.98;100.00;68091.63;5040653;28;20053;-82
2021/06/07 03:58:42;;;;;;;51.53;27.15;;;;;;;-143.98;100.00;68091.63;5039775;28;20053;-82
2021/06/07 04:01:08;;;;;;;52.20;28.33;;;;;;;-143.98;100.00;68091.63;5039127;28;20060;-82
2021/06/07 04:03:48;;;;;;;50.70;27.63;;;;;;;-143.98;100.00;68091.63;5039698;28;20144;-82
2021/06/07 04:06:16;;;;;;;50.53;29.23;;;;;;;-143.98;100.00;68091.63;5029665;28;20053;-82
2021/06/07 04:08:43;;;;;;;51.30;27.80;;;;;;;-143.98;100.00;68091.63;5028453;28;20049;-83
2021/06/07 04:11:11;;;;;;;51.42;27.80;;;;;;;-143.98;100.00;68091.63;5024666;28;20056;-83
2021/06/07 04:13:40;;;;;;;46.42;28.23;;;;;;;-143.98;100.00;68091.63;5036365;28;20065;-82
2021/06/07 04:16:10;;;;;;;48.95;28.42;;;;;;;-143.98;100.00;68091.63;5037501;28;20065;-82
2021/06/07 04:18:45;;;;;;;50.20;29.42;;;;;;;-143.98;100.00;68091.63;5026138;28;20054;-83
2021/06/07 04:21:15;;;;;;;44.42;27.90;;;;;;;-143.98;100.00;68091.63;5017867;28;20053;-82
2021/06/07 04:23:46;;;;;;;49.40;30.23;;;;;;;-143.98;100.00;68091.63;5017546;28;20049;-82
2021/06/07 04:26:13;;;;;;;49.30;29.40;;;;;;;-143.98;100.00;68091.63;5000536;28;20045;-83
2021/06/07 04:28:40;;;;;;;46.70;28.85;;;;;;;-143.98;100.00;68091.63;5018083;28;20363;-82
2021/06/07 04:31:16;;;;;;;45.22;28.88;;;;;;;-143.98;100.00;68091.63;4999846;28;20416;-82
2021/06/07 04:33:44;;;;;;;54.30;28.80;;;;;;;-143.98;100.00;68091.63;5016392;28;20108;-82
2021/06/07 04:36:13;;;;;;;49.45;28.88;;;;;;;-143.98;100.00;68091.63;4998938;28;20076;-83
2021/06/07 04:38:40;;;;;;;49.00;28.27;;;;;;;-143.98;100.00;68091.63;4998928;28;20060;-83
2021/06/07 04:41:16;;;;;;;42.10;27.50;;;;;;;-143.98;100.00;68091.63;5013105;28;20053;-83
2021/06/07 04:43:43;;;;;;;49.33;26.98;;;;;;;-143.98;100.00;68091.63;5020144;28;20064;-83
2021/06/07 04:46:16;;;;;;;42.08;26.17;;;;;;;-143.98;100.00;68091.63;5019873;28;20317;-83
2021/06/07 04:48:48;;;;;;;49.42;27.55;;;;;;;-143.98;100.00;68091.63;5019299;28;20057;-83
2021/06/07 04:51:15;;;;;;;50.10;29.33;;;;;;;-143.98;100.00;68091.63;5027947;28;20046;-83
2021/06/07 04:53:45;;;;;;;54.33;28.38;;;;;;;-143.98;100.00;68091.63;4999844;28;20054;-83
2021/06/07 04:56:15;;;;;;;48.22;28.92;;;;;;;-143.98;100.00;68091.63;5015707;28;20058;-82
2021/06/07 04:58:42;;;;;;;41.00;26.38;;;;;;;-143.98;100.00;68091.63;5014679;28;20137;-83
2021/06/07 05:01:18;;;;;;;42.25;27.20;;;;;;;-143.98;100.00;68091.63;5031137;28;20127;-83
2021/06/07 05:03:45;;;;;;;;;;;;;;;-143.98;100.00;68091.63;5019309;28;20056;-83
2021/06/07 05:06:15;;;;;;;;;;;;;;;-143.98;100.00;68091.63;5043701;28;19972;-83
2021/06/07 05:08:46;;;;;;;40.45;27.45;;;;;;;-143.98;100.00;68091.63;5034678;28;19924;-81
2021/06/07 05:11:12;;;;;;;44.50;26.48;;;;;;;-143.98;100.00;68091.63;5047013;28;20045;-83
2021/06/07 05:13:45;;;;;;;46.90;26.00;;;;;;;-143.98;100.00;68091.63;5035914;28;20403;-82
2021/06/07 05:16:24;;;;;;;49.85;27.95;;;;;;;-143.98;100.00;68091.63;5021278;28;20054;-81
2021/06/07 05:18:51;;;;;;;50.85;28.65;;;;;;;-143.98;100.00;68091.63;5035720;28;20494;-82
2021/06/07 05:21:17;;;;;;;46.67;27.77;;;;;;;-143.98;100.00;68091.63;5019254;28;20061;-82
2021/06/07 05:23:47;;;;;;;41.35;25.55;;;;;;;-143.98;100.00;68091.63;5024065;28;20049;-82
2021/06/07 05:26:17;;;;;;;41.72;25.75;;;;;;;-143.98;100.00;68091.63;5015509;28;20332;-83
2021/06/07 05:28:47;;;;;;;42.55;26.65;;;;;;;-143.98;100.00;68091.63;4999886;28;20141;-83
2021/06/07 05:31:17;;;;;;;39.33;24.83;;;;;;;-143.98;100.00;68091.63;4998159;28;20063;-83
2021/06/07 05:33:45;;;;;;;45.08;26.67;;;;;;;-143.98;100.00;68091.63;5020402;28;20077;-82
2021/06/07 05:36:15;;;;;;;43.38;27.17;;;;;;;-143.98;100.00;68091.63;5016951;28;20045;-83
2021/06/07 05:38:45;;;;;;;49.13;27.52;;;;;;;-143.98;100.00;68091.63;5020430;28;20054;-84
2021/06/07 05:41:18;;;;;;;43.72;27.10;;;;;;;-143.98;100.00;68091.63;5021199;28;20093;-83
2021/06/07 05:43:45;;;;;;;43.72;26.40;;;;;;;-143.98;100.00;68091.63;5019155;28;20046;-84
2021/06/07 05:46:16;;;;;;;43.58;25.40;;;;;;;-143.98;100.00;68091.63;5018297;28;20065;-82
2021/06/07 05:48:46;;;;;;;49.22;27.58;;;;;;;-143.98;100.00;68091.63;5003342;28;20108;-83
2021/06/07 05:51:14;;;;;;;42.05;25.95;;;;;;;-143.98;100.00;68091.63;5001491;28;20065;-83
2021/06/07 05:53:42;;;;;;;46.22;27.27;;;;;;;-143.98;100.00;68091.63;5001438;28;20141;-83
2021/06/07 05:56:12;;;;;;;41.08;27.63;;;;;;;-143.98;100.00;68091.63;5018968;28;20400;-84
2021/06/07 05:58:39;;;;;;;46.00;27.60;;;;;;;-143.98;100.00;68091.63;5022381;28;20053;-84
2021/06/07 06:01:06;;;;;;;39.83;25.08;;;;;;;-143.98;100.00;68091.63;5041549;28;20071;-83
2021/06/07 06:03:41;;;;;;;39.63;26.85;;;;;;;-143.98;100.00;68091.63;5042884;28;20119;-85
2021/06/07 06:06:14;;;;;;;54.63;27.80;;;;;;;-143.98;100.00;68091.63;5043412;28;20073;-83
2021/06/07 06:08:42;;;;;;;42.45;26.67;;;;;;;-143.98;100.00;68091.63;5023628;28;20041;-84
2021/06/07 06:11:09;;;;;;;42.70;26.38;;;;;;;-143.98;100.00;68091.63;5019009;28;20057;-84
2021/06/07 06:14:07;;;;;;;39.47;24.70;;;;;;;-143.98;100.00;68091.63;5005649;28;20058;-83
2021/06/07 06:16:34;;;;;;;37.30;24.60;;;;;;;-143.98;100.00;68091.63;5019473;28;20054;-84
2021/06/07 06:19:01;;;;;;;39.88;25.48;;;;;;;-143.98;100.00;68091.63;5017436;28;20049;-84
2021/06/07 06:21:47;;;;;;;37.97;24.13;;;;;;;-143.98;100.00;68091.63;5015778;28;20400;-83
2021/06/07 06:24:13;;;;;;;44.30;26.60;;;;;;;-143.98;100.00;68091.63;5003300;28;20214;-84
2021/06/07 06:26:40;;;;;;;35.28;23.92;;;;;;;-143.98;100.00;68091.63;5017827;28;20411;-83
2021/06/07 06:29:08;;;;;;;35.10;24.20;;;;;;;-143.98;100.00;68091.63;5016628;28;20050;-83
2021/06/07 06:31:35;;;;;;;34.28;24.10;;;;;;;-143.98;100.00;68091.63;5000514;28;20101;-83
2021/06/07 06:34:03;;;;;;;32.28;22.88;;;;;;;-143.98;100.00;68091.63;5015995;28;20077;-84
2021/06/07 06:36:31;;;;;;;38.13;24.55;;;;;;;-143.98;100.00;68091.63;5016938;28;20110;-84
2021/06/07 06:39:04;;;;;;;33.55;22.67;;;;;;;-143.98;100.00;68091.63;5030935;28;20073;-83
2021/06/07 06:41:36;;;;;;;34.97;22.60;;;;;;;-143.98;100.00;68091.63;5035123;28;20053;-84
2021/06/07 06:44:04;;;;;;;32.60;21.83;;;;;;;-143.98;100.00;68091.63;5021053;28;20317;-82
2021/06/07 06:46:32;;;;;;;32.00;22.10;;;;;;;-143.98;100.00;68091.63;5038746;28;20075;-82
2021/06/07 06:49:05;;;;;;;31.42;22.52;;;;;;;-143.98;100.00;68091.63;5026848;28;20412;-86
2021/06/07 06:51:33;;;;;;;30.10;21.17;;;;;;;-143.98;100.00;68091.63;5019901;28;20063;-83
2021/06/07 06:54:00;;;;;;;35.47;22.35;;;;;;;-143.98;100.00;68091.63;5042225;28;20072;-84
2021/06/07 06:56:44;;;;;;;31.15;21.73;;;;;;;-143.98;100.00;68091.63;5040731;28;20355;-86
2021/06/07 06:59:11;;;;;;;26.15;20.52;;;;;;;-143.98;100.00;68091.63;5025779;28;20115;-83
2021/06/07 07:01:38;;;;;;;29.58;18.58;;;;;;;-143.98;100.00;68091.63;5040270;28;20076;-83
2021/06/07 07:04:05;;;;;;;34.30;19.63;;;;;;;-143.98;100.00;68091.63;5039992;28;20080;-85
2021/06/07 07:06:36;;;;;;;27.65;18.98;;;;;;;-143.98;100.00;68091.63;5039145;28;20403;-84
2021/06/07 07:09:04;;;;;;;29.30;18.33;;;;;;;-143.98;100.00;68091.63;5037714;28;20109;-84
2021/06/07 07:11:31;;;;;;;23.27;17.55;;;;;;;-143.98;100.00;68091.63;5034090;28;20045;-84
2021/06/07 07:14:01;;;;;;;26.42;17.73;;;;;;;-143.98;100.00;68091.63;5020464;28;20366;-83
2021/06/07 07:16:28;;;;;;;24.13;16.77;;;;;;;-143.98;100.00;68091.63;5019438;28;20116;-83
2021/06/07 07:18:55;;;;;;;26.42;17.58;;;;;;;-143.98;100.00;68091.63;5024304;28;20384;-84
2021/06/07 07:21:25;;;;;;;25.75;16.13;;;;;;;-143.98;100.00;68091.63;5032621;28;20571;-83
2021/06/07 07:23:52;;;;;;;20.13;15.00;;;;;;;-143.98;100.00;68091.63;5012963;28;20049;-82
2021/06/07 07:26:22;;;;;;;25.88;16.63;;;;;;;-143.98;100.00;68091.63;5034210;28;20140;-84
2021/06/07 07:28:50;;;;;;;21.83;15.70;;;;;;;-143.98;100.00;68091.63;5017871;28;20145;-84
2021/06/07 07:31:24;;;;;;;21.48;14.63;;;;;;;-143.98;100.00;68091.63;5026536;28;20045;-84
2021/06/07 07:33:51;;;;;;;21.38;14.90;;;;;;;-143.98;100.00;68091.63;5033094;28;20061;-83
2021/06/07 07:36:19;;;;;;;24.08;15.02;;;;;;;-143.98;100.00;68091.63;5030725;28;20041;-83
2021/06/07 07:39:14;;;;;;;24.77;15.25;;;;;;;-143.98;100.00;68091.63;5030936;28;20544;-83
2021/06/07 07:41:41;;;;;;;21.00;15.38;;;;;;;-143.98;100.00;68091.63;5030333;28;20048;-84
2021/06/07 07:44:07;;;;;;;19.27;14.77;;;;;;;-143.98;100.00;68091.63;5019583;28;20034;-84
2021/06/07 07:46:41;;;;;;;21.38;15.10;;;;;;;-143.98;100.00;68091.63;5020356;28;20072;-83
2021/06/07 07:49:10;;;;;;;19.48;15.18;;;;;;;-143.98;100.00;68091.63;5036874;28;20108;-83
2021/06/07 07:51:38;;;;;;;20.42;14.48;;;;;;;-143.98;100.00;68091.63;5021021;28;20055;-83
2021/06/07 07:54:07;;;;;;;22.45;15.25;;;;;;;-143.98;100.00;68091.63;5033734;28;20053;-82
2021/06/07 07:56:46;;;;;;;20.85;14.68;;;;;;;-143.98;100.00;68091.63;5001816;28;20050;-83
2021/06/07 07:59:13;;;;;;;20.83;15.10;;;;;;;-143.98;100.00;68091.63;5017886;28;20148;-84
2021/06/07 08:01:41;;;;;;;19.42;13.32;;;;;;;-143.98;100.00;68091.63;5017847;28;20088;-84
2021/06/07 08:04:15;;;;;;;18.80;15.00;;;;;;;-143.98;100.00;68091.63;5001008;28;20058;-85
2021/06/07 08:06:44;;;;;;;23.25;14.18;;;;;;;-143.98;100.00;68091.63;5033202;28;20054;-84
2021/06/07 08:09:11;;;;;;;20.90;13.98;;;;;;;-143.98;100.00;68091.63;5017389;28;20096;-83
2021/06/07 08:11:41;;;;;;;25.15;14.63;;;;;;;-143.98;100.00;68091.63;5017390;28;20065;-82
2021/06/07 08:14:08;;;;;;;19.38;13.57;;;;;;;-143.98;100.00;68091.63;5006470;28;20165;-85
2021/06/07 08:16:38;;;;;;;19.05;14.27;;;;;;;-143.98;100.00;68091.63;5056257;28;20045;-83
2021/06/07 08:19:05;;;;;;;18.75;12.77;;;;;;;-143.98;100.00;68091.63;5043008;28;20057;-84
2021/06/07 08:21:35;;;;;;;16.63;11.93;;;;;;;-143.98;100.00;68091.63;5038552;28;20050;-84
2021/06/07 08:24:02;;;;;;;17.10;11.98;;;;;;;-143.98;100.00;68091.63;5035349;28;20054;-85
2021/06/07 08:26:29;;;;;;;20.48;12.70;;;;;;;-143.98;100.00;68091.63;5011501;28;20097;-84
2021/06/07 08:28:59;;;;;;;16.63;11.68;;;;;;;-143.98;100.00;68091.63;5013793;28;20034;-83
2021/06/07 08:31:29;;;;;;;21.05;10.80;;;;;;;-143.98;100.00;68091.63;5001022;28;20053;-83
2021/06/07 08:33:56;;;;;;;20.23;10.85;;;;;;;-143.98;100.00;68091.63;4998565;28;20066;-84
2021/06/07 08:36:26;;;;;;;17.52;10.40;;;;;;;-143.98;100.00;68091.63;4979512;28;20118;-83
2021/06/07 08:38:52;;;;;;;17.35;11.20;;;;;;;-143.98;100.00;68091.63;4995936;28;20100;-83
2021/06/07 08:41:29;;;;;;;21.45;11.52;;;;;;;-143.98;100.00;68091.63;4979392;28;20050;-83
2021/06/07 08:44:16;;;;;;;18.60;11.13;;;;;;;-143.98;100.00;68091.63;4998088;28;20058;-84
2021/06/07 08:46:49;;;;;;;16.92;10.38;;;;;;;-143.98;100.00;68091.63;5013975;28;20050;-84
2021/06/07 08:49:24;;;;;;;16.30;10.40;;;;;;;-143.98;100.00;68091.63;5000135;28;20124;-83
2021/06/07 08:51:54;;;;;;;14.93;9.48;;;;;;;-143.98;100.00;68091.63;4998948;28;20049;-84
2021/06/07 08:54:22;;;;;;;13.52;8.32;;;;;;;-143.98;100.00;68091.63;5011493;28;20101;-84
2021/06/07 08:56:51;;;;;;;11.18;8.95;;;;;;;-143.98;100.00;68091.63;5012519;28;20450;-83
2021/06/07 08:59:19;;;;;;;12.30;7.55;;;;;;;-143.98;100.00;68091.63;5012226;28;20056;-84
2021/06/07 09:01:52;;;;;;;12.07;7.90;;;;;;;-143.98;100.00;68091.63;4994926;28;20076;-84
2021/06/07 09:04:26;;;;;;;15.82;8.73;;;;;;;-143.98;100.00;68091.63;5010673;28;20042;-84
2021/06/07 09:06:53;;;;;;;14.93;9.20;;;;;;;-143.98;100.00;68091.63;4995470;28;20045;-84
2021/06/07 09:09:24;;;;;;;14.98;8.75;;;;;;;-143.98;100.00;68091.63;5014540;28;20054;-83
2021/06/07 09:12:09;;;;;;;19.55;9.75;;;;;;;-143.98;100.00;68091.63;5016695;28;20104;-84
2021/06/07 09:14:38;;;;;;;13.48;9.25;;;;;;;-143.98;100.00;68091.63;5018279;28;20118;-84
2021/06/07 09:17:19;;;;;;;18.58;9.55;;;;;;;-143.98;100.00;68091.63;4999565;28;20088;-84
2021/06/07 09:19:47;;;;;;;12.70;8.45;;;;;;;-143.98;100.00;68091.63;5019511;28;20138;-83
2021/06/07 09:22:30;;;;;;;14.68;8.52;;;;;;;-143.98;100.00;68091.63;5034358;28;20053;-83
2021/06/07 09:25:12;;;;;;;16.23;8.00;;;;;;;-143.98;100.00;68091.63;5031668;28;20420;-83
2021/06/07 09:28:04;;;;;;;10.80;8.00;;;;;;;-143.98;100.00;68091.63;5032749;28;20050;-82
2021/06/07 09:30:44;;;;;;;11.80;7.57;;;;;;;-143.98;100.00;68091.63;5016342;28;20447;-82
2021/06/07 09:33:19;;;;;;;12.15;6.95;;;;;;;-143.98;100.00;68091.63;5006960;28;20462;-84
2021/06/07 09:36:27;;;;;;;11.43;7.80;;;;;;;-143.98;100.00;68091.63;5036626;28;20064;-84
2021/06/07 09:39:15;;;;;;;11.70;6.93;;;;;;;-143.98;100.00;68091.63;5037426;28;20454;-84
2021/06/07 09:42:09;;;;;;;10.88;6.70;;;;;;;-143.98;100.00;68091.63;5034806;28;20136;-84
2021/06/07 09:44:48;;;;;;;14.85;6.70;;;;;;;-143.98;100.00;68091.63;5038149;28;20058;-85
2021/06/07 09:47:23;;;;;;;11.27;6.90;;;;;;;-143.98;100.00;68091.63;5021499;28;20296;-84
2021/06/07 09:50:23;;;;;;;14.23;7.38;;;;;;;-143.98;100.00;68091.63;5037719;28;20091;-83
2021/06/07 09:52:55;;;;;;;15.55;7.72;;;;;;;-143.98;100.00;68091.63;5004705;28;20059;-84
2021/06/07 09:55:27;;;;;;;17.40;8.18;;;;;;;-143.98;100.00;68091.63;5019857;28;20178;-84
2021/06/07 09:57:57;;;;;;;17.80;9.02;;;;;;;-143.98;100.00;68091.63;5019156;28;20046;-83
2021/06/07 10:00:48;;;;;;;15.75;7.78;;;;;;;-143.98;100.00;68091.63;5018908;28;20144;-85
2021/06/07 10:03:39;;;;;;;14.63;9.70;;;;;;;-143.98;100.00;68091.63;5036587;28;20442;-84
2021/06/07 10:06:20;;;;;;;19.48;8.23;;;;;;;-143.98;100.00;68091.63;5034739;28;20084;-83
2021/06/07 10:08:57;;;;;;;18.67;7.72;;;;;;;-143.98;100.00;68091.63;5033400;28;20060;-83
2021/06/07 10:11:45;;;;;;;13.23;8.05;;;;;;;-143.98;100.00;68091.63;5011597;28;20152;-83
2021/06/07 10:14:18;;;;;;;13.07;7.60;;;;;;;-143.98;100.00;68091.63;5023048;28;20041;-82
2021/06/07 10:17:02;;;;;;;15.43;7.85;;;;;;;-143.98;100.00;68091.63;5014792;28;20050;-84
2021/06/07 10:19:33;;;;;;;16.38;8.65;;;;;;;-143.98;100.00;68091.63;4998823;28;20076;-83
2021/06/07 10:22:03;;;;;;;14.65;8.43;;;;;;;-143.98;100.00;68091.63;5014703;28;20093;-83
2021/06/07 10:24:31;;;;;;;21.48;9.02;;;;;;;-143.98;100.00;68091.63;5027227;28;20057;-84
2021/06/07 10:26:58;;;;;;;12.10;7.82;;;;;;;-143.98;100.00;68091.63;5034801;28;20041;-83
2021/06/07 10:29:46;;;;;;;12.20;8.63;;;;;;;-143.98;100.00;68091.63;5017294;28;20053;-85
2021/06/07 10:32:17;;;;;;;14.93;7.80;;;;;;;-143.98;100.00;68091.63;5017096;28;20058;-83
2021/06/07 10:34:53;;;;;;;11.98;7.82;;;;;;;-143.98;100.00;68091.63;5034700;28;20068;-83
2021/06/07 10:37:28;;;;;;;13.73;7.80;;;;;;;-143.98;100.00;68091.63;5018736;28;20054;-83
2021/06/07 10:40:19;;;;;;;15.55;8.80;;;;;;;-143.98;100.00;68091.63;5029351;28;20426;-83
2021/06/07 10:42:54;;;;;;;15.00;7.55;;;;;;;-143.98;100.00;68091.63;5031218;28;20439;-84
2021/06/07 10:45:24;;;;;;;16.15;7.57;;;;;;;-143.98;100.00;68091.63;5032256;28;20049;-84
2021/06/07 10:47:51;;;;;;;14.10;7.88;;;;;;;-143.98;100.00;68091.63;5017309;28;20050;-84
2021/06/07 10:50:23;;;;;;;15.98;8.65;;;;;;;-143.98;100.00;68091.63;5020947;28;20052;-84
2021/06/07 10:53:01;;;;;;;15.02;8.52;;;;;;;-143.98;100.00;68091.63;5014510;28;20054;-83
2021/06/07 10:55:34;;;;;;;15.65;9.18;;;;;;;-143.98;100.00;68091.63;5012797;28;20423;-84
2021/06/07 10:58:15;;;;;;;18.30;8.23;;;;;;;-143.98;100.00;68091.63;5032472;28;20123;-82
2021/06/07 11:00:48;;;;;;;15.68;8.13;;;;;;;-143.98;100.00;68091.63;5013687;28;20049;-84
2021/06/07 11:03:32;;;;;;;13.85;8.13;;;;;;;-143.98;100.00;68091.63;5006327;28;20088;-84
2021/06/07 11:06:17;;;;;;;12.57;7.00;;;;;;;-143.98;100.00;68091.63;5013473;28;20045;-83
2021/06/07 11:09:02;;;;;;;12.65;7.70;;;;;;;-143.98;100.00;68091.63;5013981;28;20050;-84
2021/06/07 11:11:43;;;;;;;12.55;7.28;;;;;;;-143.98;100.00;68091.63;5023794;28;20184;-83
2021/06/07 11:14:13;;;;;;;21.95;9.82;;;;;;;-143.98;100.00;68091.63;5032365;28;20369;-83
2021/06/07 11:16:43;;;;;;;13.55;7.50;;;;;;;-143.98;100.00;68091.63;5035473;28;20502;-83
2021/06/07 11:19:17;;;;;;;14.23;7.25;;;;;;;-143.98;100.00;68091.63;5019480;28;20080;-83